You are listening to:
KJFK Tower - New York, New York, United States

KJFK 051951Z 32008KT 10SM SCT034 BKN055 BKN250 27/18 A3006 RMK AO2 SLP179 T02720178

If stream doesn't start automatically press the play button
If stream stops then reload player then press play